createdAt,value
2023-05-21T00:00:37.114Z,100794.59
2023-05-21T00:03:07.615Z,100786.38
2023-05-21T00:05:39.915Z,100792.72
2023-05-21T00:08:12.569Z,100797.34
2023-05-21T00:10:42.945Z,100798.66
2023-05-21T00:13:13.962Z,100809.25
2023-05-21T00:15:45.109Z,100808.13
2023-05-21T00:18:15.539Z,100805.47
2023-05-21T00:20:45.897Z,100809.06
2023-05-21T00:23:16.445Z,100827.81
2023-05-21T00:25:47.980Z,100816.09
2023-05-21T00:28:19.582Z,100826.50
2023-05-21T00:30:50.126Z,100817.72
2023-05-21T00:33:20.511Z,100821.31
2023-05-21T00:35:51.044Z,100832.53
2023-05-21T00:38:21.515Z,100819.94
2023-05-21T00:40:52.313Z,100825.50
2023-05-21T00:43:22.913Z,100833.22
2023-05-21T00:45:56.148Z,100828.59
2023-05-21T00:48:26.901Z,100835.22
2023-05-21T00:50:58.189Z,100831.97
2023-05-21T00:53:29.901Z,100835.38
2023-05-21T00:56:02.534Z,100840.44
2023-05-21T00:58:35.867Z,100834.66
2023-05-21T01:01:09.098Z,100843.31
2023-05-21T01:03:40.812Z,100847.25
2023-05-21T01:06:12.388Z,100849.81
2023-05-21T01:08:45.822Z,100856.63
2023-05-21T01:11:17.464Z,100854.53
2023-05-21T01:13:50.269Z,100858.16
2023-05-21T01:16:21.065Z,100856.28
2023-05-21T01:18:51.534Z,100850.63
2023-05-21T01:21:27.674Z,100858.34
2023-05-21T01:23:58.889Z,100869.72
2023-05-21T01:26:30.984Z,100870.72
2023-05-21T01:29:01.596Z,100867.38
2023-05-21T01:32:04.155Z,100868.88
2023-05-21T01:34:59.584Z,100878.03
2023-05-21T01:37:33.496Z,100866.38
2023-05-21T01:40:18.683Z,100865.66
2023-05-21T01:42:50.328Z,100863.34
2023-05-21T01:45:23.837Z,100872.63
2023-05-21T01:48:00.067Z,100864.28
2023-05-21T01:50:32.488Z,100866.25
2023-05-21T01:53:08.206Z,100861.50
2023-05-21T01:55:43.521Z,100867.53
2023-05-21T01:58:13.999Z,100873.41
2023-05-21T02:00:44.821Z,100877.94
2023-05-21T02:03:19.711Z,100876.34
2023-05-21T02:05:50.231Z,100878.34
2023-05-21T02:08:22.269Z,100877.63
2023-05-21T02:10:55.313Z,100873.47
2023-05-21T02:13:27.529Z,100878.91
2023-05-21T02:15:58.653Z,100877.28
2023-05-21T02:18:33.312Z,100882.69
2023-05-21T02:21:03.993Z,100877.28
2023-05-21T02:23:35.424Z,100886.59
2023-05-21T02:26:06.558Z,100882.81
2023-05-21T02:28:36.885Z,100876.47
2023-05-21T02:31:07.232Z,100890.53
2023-05-21T02:33:38.735Z,100893.78
2023-05-21T02:36:15.809Z,100898.44
2023-05-21T02:38:46.255Z,100900.53
2023-05-21T02:41:16.805Z,100905.31
2023-05-21T02:43:47.269Z,100902.75
2023-05-21T02:46:18.465Z,100902.28
2023-05-21T02:48:49.238Z,100904.06
2023-05-21T02:51:20.282Z,100906.25
2023-05-21T02:53:51.707Z,100900.81
2023-05-21T02:56:22.632Z,100900.22
2023-05-21T02:58:54.520Z,100902.75
2023-05-21T03:01:25.128Z,100907.31
2023-05-21T03:03:55.397Z,100912.31
2023-05-21T03:06:26.413Z,100909.06
2023-05-21T03:08:56.779Z,100914.94
2023-05-21T03:11:27.233Z,100912.75
2023-05-21T03:13:58.017Z,100917.28
2023-05-21T03:16:28.575Z,100917.75
2023-05-21T03:18:59.003Z,100914.28
2023-05-21T03:21:32.504Z,100913.81
2023-05-21T03:24:04.558Z,100916.34
2023-05-21T03:26:35.170Z,100915.22
2023-05-21T03:29:05.656Z,100916.56
2023-05-21T03:31:38.645Z,100913.13
2023-05-21T03:34:14.370Z,100913.25
2023-05-21T03:36:45.108Z,100910.72
2023-05-21T03:39:15.926Z,100911.41
2023-05-21T03:41:46.443Z,100906.09
2023-05-21T03:44:25.008Z,100900.19
2023-05-21T03:47:00.236Z,100890.63
2023-05-21T03:49:33.867Z,100901.22
2023-05-21T03:52:04.298Z,100898.81
2023-05-21T03:54:34.689Z,100907.97
2023-05-21T03:57:11.793Z,100892.03
2023-05-21T03:59:42.175Z,100896.66
2023-05-21T04:02:12.540Z,100888.91
2023-05-21T04:04:42.979Z,100884.97
2023-05-21T04:07:17.042Z,100880.00
2023-05-21T04:09:47.446Z,100870.72
2023-05-21T04:12:18.438Z,100866.56
2023-05-21T04:14:50.205Z,100859.59
2023-05-21T04:17:21.691Z,100851.84
2023-05-21T04:19:53.620Z,100850.84
2023-05-21T04:22:25.812Z,100848.38
2023-05-21T04:24:57.061Z,100835.44
2023-05-21T04:27:32.258Z,100842.38
2023-05-21T04:30:02.812Z,100825.00
2023-05-21T04:32:37.357Z,100832.53
2023-05-21T04:35:08.200Z,100828.34
2023-05-21T04:37:38.704Z,100818.88
2023-05-21T04:40:10.295Z,100826.88
2023-05-21T04:42:41.567Z,100823.50
2023-05-21T04:45:14.068Z,100820.47
2023-05-21T04:47:47.147Z,100814.22
2023-05-21T04:50:17.835Z,100807.59
2023-05-21T04:52:48.284Z,100808.66
2023-05-21T04:55:21.488Z,100803.09
2023-05-21T04:57:52.256Z,100794.50
2023-05-21T05:00:24.987Z,100798.00
2023-05-21T05:02:55.464Z,100785.63
2023-05-21T05:05:26.007Z,100790.13
2023-05-21T05:07:56.325Z,100783.75
2023-05-21T05:10:27.029Z,100771.78
2023-05-21T05:12:58.461Z,100774.06
2023-05-21T05:15:29.046Z,100766.34
2023-05-21T05:18:00.533Z,100766.19
2023-05-21T05:20:32.044Z,100764.81
2023-05-21T05:23:02.792Z,100756.97
2023-05-21T05:25:34.795Z,100754.38
2023-05-21T05:28:05.768Z,100745.81
2023-05-21T05:30:36.232Z,100737.72
2023-05-21T05:33:18.024Z,100741.66
2023-05-21T05:35:48.664Z,100734.28
2023-05-21T05:38:19.532Z,100732.22
2023-05-21T05:40:49.769Z,100729.63
2023-05-21T05:43:20.203Z,100720.03
2023-05-21T05:45:50.510Z,100715.06
2023-05-21T05:48:22.012Z,100719.00
2023-05-21T05:50:52.373Z,100717.47
2023-05-21T05:53:23.024Z,100717.09
2023-05-21T05:55:53.987Z,100710.63
2023-05-21T05:58:24.379Z,100715.34
2023-05-21T06:01:10.976Z,100707.66
2023-05-21T06:03:43.259Z,100712.31
2023-05-21T06:06:17.456Z,100709.38
2023-05-21T06:08:48.752Z,100700.50
2023-05-21T06:11:19.774Z,100704.56
2023-05-21T06:13:51.590Z,100693.41
2023-05-21T06:16:22.253Z,100690.09
2023-05-21T06:28:09.297Z,100657.84
2023-05-21T06:30:40.960Z,100654.44
2023-05-21T06:33:11.780Z,100654.97
2023-05-21T06:35:42.797Z,100647.63
2023-05-21T06:38:14.314Z,100644.13
2023-05-21T06:40:47.102Z,100635.78
2023-05-21T06:43:25.371Z,100632.47
2023-05-21T06:46:25.057Z,100631.50
2023-05-21T06:48:55.700Z,100631.56
2023-05-21T06:51:25.986Z,100628.13
2023-05-21T06:53:56.442Z,100629.19
2023-05-21T06:56:27.534Z,100620.28
2023-05-21T06:58:58.840Z,100611.41
2023-05-21T07:01:29.500Z,100607.03
2023-05-21T07:04:00.043Z,100604.94
2023-05-21T07:06:30.660Z,100595.50
2023-05-21T07:09:01.372Z,100604.53
2023-05-21T07:11:33.576Z,100603.56
2023-05-21T07:14:09.408Z,100594.25
2023-05-21T07:16:41.887Z,100597.47
2023-05-21T07:19:12.329Z,100591.31
2023-05-21T07:21:43.056Z,100585.31
2023-05-21T07:24:14.343Z,100584.78
2023-05-21T07:26:45.624Z,100576.66
2023-05-21T07:29:16.453Z,100570.63
2023-05-21T07:31:47.012Z,100576.59
2023-05-21T07:34:17.381Z,100569.78
2023-05-21T07:36:47.826Z,100560.25
2023-05-21T07:39:19.432Z,100544.78
2023-05-21T07:41:49.869Z,100536.06
2023-05-21T07:44:20.281Z,100524.66
2023-05-21T07:46:51.248Z,100527.44
2023-05-21T07:49:21.846Z,100511.91
2023-05-21T07:51:53.714Z,100518.22
2023-05-21T07:54:24.188Z,100516.59
2023-05-21T07:56:55.412Z,100506.16
2023-05-21T07:59:48.834Z,100499.81
2023-05-21T08:02:19.669Z,100488.97
2023-05-21T08:04:50.434Z,100483.59
2023-05-21T08:07:22.198Z,100468.50
2023-05-21T08:09:52.624Z,100483.00
2023-05-21T08:12:23.430Z,100475.09
2023-05-21T08:14:53.933Z,100466.72
2023-05-21T08:17:26.736Z,100465.66
2023-05-21T08:19:57.709Z,100464.13
2023-05-21T08:22:29.091Z,100456.03
2023-05-21T08:24:59.574Z,100452.59
2023-05-21T08:27:29.858Z,100443.81
2023-05-21T08:30:01.190Z,100443.00
2023-05-21T08:32:31.672Z,100447.97
2023-05-21T08:35:03.091Z,100446.25
2023-05-21T08:37:59.236Z,100442.63
2023-05-21T08:40:46.994Z,100449.03
2023-05-21T08:43:19.289Z,100446.44
2023-05-21T08:45:59.483Z,100455.38
2023-05-21T08:48:35.051Z,100456.69
2023-05-21T08:51:05.851Z,100446.78
2023-05-21T08:53:41.526Z,100440.72
2023-05-21T08:56:15.564Z,100441.00
2023-05-21T08:58:52.132Z,100444.09
2023-05-21T09:01:26.555Z,100448.59
2023-05-21T09:04:19.536Z,100445.84
2023-05-21T09:06:54.781Z,100443.69
2023-05-21T09:09:58.596Z,100443.69
2023-05-21T09:12:31.107Z,100440.16
2023-05-21T09:15:04.289Z,100452.31
2023-05-21T09:17:38.933Z,100454.88
2023-05-21T09:20:32.605Z,100452.47
2023-05-21T09:23:14.621Z,100453.72
2023-05-21T09:25:49.845Z,100450.50
2023-05-21T09:28:28.143Z,100447.84
2023-05-21T09:30:58.893Z,100443.81
2023-05-21T09:33:34.189Z,100452.59
2023-05-21T09:36:05.221Z,100451.75
2023-05-21T09:38:37.470Z,100443.75
2023-05-21T09:41:11.329Z,100450.94
2023-05-21T09:43:47.407Z,100451.81
2023-05-21T09:46:24.419Z,100448.63
2023-05-21T09:48:54.874Z,100454.81
2023-05-21T09:51:25.418Z,100454.00
2023-05-21T09:54:03.642Z,100465.47
2023-05-21T09:56:34.513Z,100470.72
2023-05-21T09:59:09.261Z,100470.19
2023-05-21T10:01:41.536Z,100470.78
2023-05-21T10:04:12.637Z,100477.97
2023-05-21T10:06:47.074Z,100479.50
2023-05-21T10:09:21.432Z,100479.59
2023-05-21T10:11:55.804Z,100472.41
2023-05-21T10:14:29.795Z,100474.53
2023-05-21T10:17:01.748Z,100470.97
2023-05-21T10:19:35.721Z,100466.84
2023-05-21T10:22:07.163Z,100471.59
2023-05-21T10:24:38.526Z,100461.19
2023-05-21T10:27:09.977Z,100469.53
2023-05-21T10:29:41.229Z,100459.66
2023-05-21T10:32:12.476Z,100468.03
2023-05-21T10:34:43.398Z,100473.44
2023-05-21T10:37:16.264Z,100478.19
2023-05-21T10:39:48.365Z,100485.81
2023-05-21T10:42:33.569Z,100488.53
2023-05-21T10:45:27.083Z,100493.00
2023-05-21T10:48:19.081Z,100499.31
2023-05-21T10:51:11.626Z,100496.91
2023-05-21T10:53:51.219Z,100499.31
2023-05-21T10:57:07.471Z,100493.34
2023-05-21T10:59:49.799Z,100496.53
2023-05-21T11:02:23.378Z,100500.47
2023-05-21T11:05:03.180Z,100497.16
2023-05-21T11:08:02.953Z,100499.09
2023-05-21T11:10:43.349Z,100498.69
2023-05-21T11:13:19.051Z,100495.91
2023-05-21T11:16:01.842Z,100493.84
2023-05-21T11:18:52.237Z,100500.13
2023-05-21T11:21:32.299Z,100504.38
2023-05-21T11:24:08.831Z,100518.28
2023-05-21T11:26:51.511Z,100521.94
2023-05-21T11:29:22.559Z,100530.75
2023-05-21T11:32:07.805Z,100536.44
2023-05-21T11:34:43.222Z,100542.72
2023-05-21T11:37:39.519Z,100561.75
2023-05-21T11:40:21.777Z,100569.19
2023-05-21T11:42:56.824Z,100579.88
2023-05-21T11:45:33.778Z,100581.06
2023-05-21T11:48:04.680Z,100593.00
2023-05-21T11:50:36.587Z,100602.88
2023-05-21T11:53:07.688Z,100611.94
2023-05-21T11:55:45.775Z,100618.03
2023-05-21T11:58:17.481Z,100619.81
2023-05-21T12:00:48.048Z,100618.59
2023-05-21T12:03:19.608Z,100629.78
2023-05-21T12:05:51.140Z,100636.88
2023-05-21T12:08:28.139Z,100636.97
2023-05-21T12:11:05.818Z,100636.88
2023-05-21T12:13:36.228Z,100633.88
2023-05-21T12:16:07.888Z,100642.94
2023-05-21T12:18:39.644Z,100649.78
2023-05-21T12:21:12.509Z,100666.00
2023-05-21T12:23:43.090Z,100671.44
2023-05-21T12:26:14.815Z,100674.59
2023-05-21T12:28:45.341Z,100684.81
2023-05-21T12:31:19.207Z,100699.19
2023-05-21T12:33:55.877Z,100701.97
2023-05-21T12:36:33.211Z,100719.09
2023-05-21T12:39:03.751Z,100713.69
2023-05-21T12:41:34.203Z,100715.69
2023-05-21T12:44:04.482Z,100723.56
2023-05-21T12:46:36.954Z,100733.06
2023-05-21T12:49:07.357Z,100737.81
2023-05-21T12:51:42.853Z,100735.38
2023-05-21T12:54:16.606Z,100744.09
2023-05-21T12:56:51.010Z,100753.59
2023-05-21T12:59:24.706Z,100759.94
2023-05-21T13:01:55.822Z,100762.41
2023-05-21T13:04:27.052Z,100768.75
2023-05-21T13:06:57.546Z,100778.94
2023-05-21T13:09:27.953Z,100777.00
2023-05-21T13:11:58.448Z,100774.22
2023-05-21T13:14:28.780Z,100777.22
2023-05-21T13:16:59.084Z,100786.19
2023-05-21T13:19:30.031Z,100789.06
2023-05-21T13:22:00.364Z,100788.03
2023-05-21T13:24:30.753Z,100800.31
2023-05-21T13:27:00.995Z,100802.63
2023-05-21T13:29:31.500Z,100809.00
2023-05-21T13:32:01.905Z,100810.97
2023-05-21T13:34:33.092Z,100806.59
2023-05-21T13:37:03.324Z,100823.94
2023-05-21T13:39:33.695Z,100826.06
2023-05-21T13:42:04.740Z,100840.63
2023-05-21T13:44:39.108Z,100849.53
2023-05-21T13:47:11.468Z,100852.78
2023-05-21T13:49:42.663Z,100858.94
2023-05-21T13:52:12.695Z,100860.06
2023-05-21T13:54:43.655Z,100860.19
2023-05-21T13:57:14.185Z,100863.78
2023-05-21T13:59:44.649Z,100865.16
2023-05-21T14:02:16.565Z,100876.25
2023-05-21T14:04:46.835Z,100892.47
2023-05-21T14:07:17.426Z,100891.78
2023-05-21T14:09:50.149Z,100895.06
2023-05-21T14:12:21.470Z,100907.69
2023-05-21T14:14:52.240Z,100922.13
2023-05-21T14:17:22.931Z,100919.13
2023-05-21T14:19:53.378Z,100916.91
2023-05-21T14:22:24.109Z,100925.16
2023-05-21T14:24:55.049Z,100913.56
2023-05-21T14:27:25.310Z,100914.28
2023-05-21T14:29:55.848Z,100916.22
2023-05-21T14:32:26.311Z,100924.22
2023-05-21T14:34:56.964Z,100928.97
2023-05-21T14:37:27.314Z,100940.00
2023-05-21T14:39:57.761Z,100933.75
2023-05-21T14:42:28.127Z,100940.69
2023-05-21T14:44:58.955Z,100944.63
2023-05-21T14:47:29.596Z,100947.28
2023-05-21T14:50:00.286Z,100949.72
2023-05-21T14:52:30.747Z,100958.06
2023-05-21T14:55:24.808Z,100960.13
2023-05-21T14:57:55.108Z,100965.22
2023-05-21T15:00:25.610Z,100973.09
2023-05-21T15:02:57.334Z,100971.25
2023-05-21T15:05:30.233Z,100976.59
2023-05-21T15:08:00.992Z,100969.16
2023-05-21T15:10:31.587Z,100968.94
2023-05-21T15:13:01.823Z,100964.75
2023-05-21T15:15:32.142Z,100957.25
2023-05-21T15:18:02.646Z,100961.41
2023-05-21T15:20:33.133Z,100955.50
2023-05-21T15:25:37.071Z,100973.69
2023-05-21T15:28:07.521Z,100972.63
2023-05-21T15:30:37.892Z,100981.53
2023-05-21T15:33:10.288Z,100968.44
2023-05-21T15:35:41.089Z,100969.59
2023-05-21T15:38:11.755Z,100966.50
2023-05-21T15:40:45.593Z,100952.94
2023-05-21T15:43:15.959Z,100961.50
2023-05-21T15:45:46.270Z,100951.53
2023-05-21T15:48:17.105Z,100955.94
2023-05-21T15:50:47.433Z,100950.84
2023-05-21T15:53:17.933Z,100949.13
2023-05-21T15:55:48.458Z,100945.88
2023-05-21T15:58:19.244Z,100943.88
2023-05-21T16:00:49.661Z,100937.53
2023-05-21T16:03:20.158Z,100931.16
2023-05-21T16:05:50.540Z,100926.88
2023-05-21T16:08:20.863Z,100925.59
2023-05-21T16:10:51.087Z,100922.00
2023-05-21T16:13:21.404Z,100919.22
2023-05-21T16:15:51.763Z,100921.53
2023-05-21T16:18:22.163Z,100920.03
2023-05-21T16:20:52.452Z,100927.22
2023-05-21T16:23:22.795Z,100917.72
2023-05-21T16:25:53.467Z,100911.69
2023-05-21T16:28:27.364Z,100913.00
2023-05-21T16:30:57.682Z,100918.88
2023-05-21T16:33:28.299Z,100924.31
2023-05-21T16:35:59.076Z,100923.16
2023-05-21T16:38:29.278Z,100912.88
2023-05-21T16:40:59.845Z,100896.22
2023-05-21T16:43:30.283Z,100894.59
2023-05-21T16:46:00.670Z,100889.03
2023-05-21T16:48:31.007Z,100889.34
2023-05-21T16:51:02.097Z,100899.41
2023-05-21T16:53:32.726Z,100889.47
2023-05-21T16:56:03.170Z,100883.47
2023-05-21T16:58:35.553Z,100880.34
2023-05-21T17:01:06.165Z,100870.72
2023-05-21T17:03:36.689Z,100865.66
2023-05-21T17:06:07.396Z,100860.78
2023-05-21T17:08:38.768Z,100857.63
2023-05-21T17:11:09.716Z,100854.06
2023-05-21T17:13:40.131Z,100844.09
2023-05-21T17:16:10.624Z,100845.00
2023-05-21T17:18:41.012Z,100831.38
2023-05-21T17:21:12.399Z,100836.94
2023-05-21T17:23:45.194Z,100829.75
2023-05-21T17:26:16.387Z,100819.78
2023-05-21T17:28:46.381Z,100818.97
2023-05-21T17:31:16.981Z,100808.22
2023-05-21T17:33:47.422Z,100805.78
2023-05-21T17:36:18.649Z,100799.09
2023-05-21T17:38:49.034Z,100801.03
2023-05-21T17:41:21.449Z,100789.13
2023-05-21T17:43:51.688Z,100778.81
2023-05-21T17:46:22.753Z,100771.16
2023-05-21T17:48:53.274Z,100777.19
2023-05-21T17:51:23.703Z,100775.25
2023-05-21T17:53:54.409Z,100776.03
2023-05-21T17:56:25.390Z,100773.63
2023-05-21T17:58:56.587Z,100765.28
2023-05-21T18:01:27.114Z,100768.06
2023-05-21T18:03:57.513Z,100767.25
2023-05-21T18:06:28.025Z,100771.16
2023-05-21T18:08:58.417Z,100769.13
2023-05-21T18:11:28.957Z,100775.09
2023-05-21T18:13:59.229Z,100758.00
2023-05-21T18:16:32.616Z,100764.00
2023-05-21T18:19:22.840Z,100761.13
2023-05-21T18:21:53.427Z,100754.03
2023-05-21T18:24:23.770Z,100755.56
2023-05-21T18:26:54.033Z,100753.59
2023-05-21T18:29:24.421Z,100754.31
2023-05-21T18:31:54.864Z,100749.91
2023-05-21T18:34:25.341Z,100753.00
2023-05-21T18:36:56.925Z,100751.06
2023-05-21T18:39:27.612Z,100745.16
2023-05-21T18:42:11.965Z,100744.00
2023-05-21T18:44:43.577Z,100748.75
2023-05-21T18:47:15.139Z,100751.53
2023-05-21T18:49:45.600Z,100737.97
2023-05-21T18:52:17.797Z,100729.31
2023-05-21T18:54:48.396Z,100724.91
2023-05-21T18:57:18.694Z,100729.19
2023-05-21T18:59:49.041Z,100732.06
2023-05-21T19:02:19.699Z,100721.31
2023-05-21T19:04:51.799Z,100719.34
2023-05-21T19:07:22.420Z,100723.28
2023-05-21T19:09:52.885Z,100719.25
2023-05-21T19:12:22.962Z,100716.09
2023-05-21T19:14:53.537Z,100721.56
2023-05-21T19:17:24.338Z,100724.81
2023-05-21T19:20:04.102Z,100728.38
2023-05-21T19:22:34.475Z,100721.19
2023-05-21T19:25:04.839Z,100725.13
2023-05-21T19:27:35.308Z,100725.50
2023-05-21T19:30:05.693Z,100734.16
2023-05-21T19:32:36.669Z,100727.81
2023-05-21T19:35:09.964Z,100728.59
2023-05-21T19:37:40.556Z,100723.06
2023-05-21T19:40:11.568Z,100721.91
2023-05-21T19:42:42.513Z,100721.09
2023-05-21T19:45:13.986Z,100723.88
2023-05-21T19:47:44.594Z,100727.91
2023-05-21T19:50:15.224Z,100730.22
2023-05-21T19:52:46.791Z,100726.41
2023-05-21T19:55:22.465Z,100729.53
2023-05-21T19:57:53.102Z,100729.91
2023-05-21T20:00:23.929Z,100721.56
2023-05-21T20:02:56.340Z,100714.50
2023-05-21T20:05:26.644Z,100708.13
2023-05-21T20:07:57.187Z,100714.38
2023-05-21T20:10:27.543Z,100714.50
2023-05-21T20:12:58.302Z,100711.25
2023-05-21T20:15:28.597Z,100706.38
2023-05-21T20:18:01.508Z,100719.13
2023-05-21T20:20:32.057Z,100727.44
2023-05-21T20:23:05.656Z,100721.91
2023-05-21T20:25:36.258Z,100714.63
2023-05-21T20:28:07.728Z,100722.63
2023-05-21T20:30:53.885Z,100718.56
2023-05-21T20:33:25.104Z,100717.28
2023-05-21T20:35:55.574Z,100719.84
2023-05-21T20:38:28.563Z,100721.00
2023-05-21T20:40:58.848Z,100716.69
2023-05-21T20:43:29.437Z,100722.63
2023-05-21T20:46:02.033Z,100718.22
2023-05-21T20:48:34.452Z,100726.09
2023-05-21T20:51:07.023Z,100724.38
2023-05-21T20:53:37.390Z,100729.06
2023-05-21T20:56:10.618Z,100725.81
2023-05-21T20:58:42.270Z,100731.38
2023-05-21T21:01:13.045Z,100724.66
2023-05-21T21:03:46.226Z,100730.13
2023-05-21T21:06:17.689Z,100719.34
2023-05-21T21:08:48.580Z,100729.19
2023-05-21T21:11:19.252Z,100733.47
2023-05-21T21:13:50.984Z,100741.81
2023-05-21T21:16:21.344Z,100743.75
2023-05-21T21:18:51.931Z,100739.81
2023-05-21T21:21:22.926Z,100745.06
2023-05-21T21:23:53.371Z,100741.34
2023-05-21T21:26:24.482Z,100752.78
2023-05-21T21:28:55.231Z,100761.47
2023-05-21T21:31:26.820Z,100765.06
2023-05-21T21:33:57.302Z,100754.41
2023-05-21T21:36:27.481Z,100746.06
2023-05-21T21:38:58.520Z,100761.09
2023-05-21T21:41:28.913Z,100759.06
2023-05-21T21:43:59.330Z,100760.66
2023-05-21T21:46:29.876Z,100761.00
2023-05-21T21:49:00.356Z,100760.53
2023-05-21T21:51:30.642Z,100760.53
2023-05-21T21:54:00.986Z,100762.50
2023-05-21T21:56:32.296Z,100772.09
2023-05-21T21:59:02.962Z,100764.59
2023-05-21T22:01:33.945Z,100768.53
2023-05-21T22:04:04.112Z,100771.31
2023-05-21T22:06:34.378Z,100768.63
2023-05-21T22:09:04.785Z,100771.88
2023-05-21T22:11:35.554Z,100771.41
2023-05-21T22:14:06.762Z,100775.25
2023-05-21T22:16:37.118Z,100772.47
2023-05-21T22:19:07.534Z,100770.84
2023-05-21T22:21:38.516Z,100777.91
2023-05-21T22:24:14.925Z,100774.88
2023-05-21T22:26:54.920Z,100776.59
2023-05-21T22:29:25.512Z,100773.84
2023-05-21T22:31:55.909Z,100773.03
2023-05-21T22:34:27.647Z,100779.75
2023-05-21T22:36:58.107Z,100772.34
2023-05-21T22:39:28.468Z,100781.47
2023-05-21T22:41:58.978Z,100786.22
2023-05-21T22:44:29.373Z,100787.72
2023-05-21T22:47:02.623Z,100795.72
2023-05-21T22:49:35.067Z,100792.78
2023-05-21T22:52:07.602Z,100788.28
2023-05-21T22:55:59.738Z,100787.72
2023-05-21T22:58:31.322Z,100792.91
2023-05-21T23:01:01.677Z,100793.94
2023-05-21T23:03:31.937Z,100793.34
2023-05-21T23:06:02.473Z,100798.09
2023-05-21T23:08:32.899Z,100794.03
2023-05-21T23:11:04.021Z,100802.56
2023-05-21T23:13:34.246Z,100815.16
2023-05-21T23:16:04.679Z,100814.81
2023-05-21T23:18:35.295Z,100816.44
2023-05-21T23:21:05.738Z,100824.78
2023-05-21T23:23:36.089Z,100829.44
2023-05-21T23:26:07.047Z,100836.97
2023-05-21T23:28:39.610Z,100837.28
2023-05-21T23:31:10.561Z,100843.66
2023-05-21T23:33:41.018Z,100837.13
2023-05-21T23:36:11.639Z,100847.13
2023-05-21T23:38:41.975Z,100851.50
2023-05-21T23:41:12.923Z,100858.34
2023-05-21T23:43:43.584Z,100865.50
2023-05-21T23:46:14.211Z,100867.00
2023-05-21T23:48:44.622Z,100867.00
2023-05-21T23:51:15.628Z,100876.13
2023-05-21T23:53:45.961Z,100880.88
2023-05-21T23:56:16.390Z,100881.78
2023-05-21T23:58:46.724Z,100883.78
